createdAt,value
2017-11-08T00:02:14.499Z,14.93
2017-11-08T00:04:44.375Z,14.57
2017-11-08T00:07:13.067Z,16.25
2017-11-08T00:09:40.997Z,15.45
2017-11-08T00:12:09.047Z,16.95
2017-11-08T00:14:36.955Z,14.43
2017-11-08T00:17:07.345Z,15.30
2017-11-08T00:19:35.228Z,15.88
2017-11-08T00:22:03.169Z,16.70
2017-11-08T00:24:31.057Z,15.60
2017-11-08T00:26:59.017Z,15.40
2017-11-08T00:29:26.919Z,14.65
2017-11-08T00:31:54.869Z,15.88
2017-11-08T00:34:22.747Z,16.62
2017-11-08T00:36:50.680Z,15.95
2017-11-08T00:39:18.560Z,17.55
2017-11-08T00:41:46.510Z,17.58
2017-11-08T00:44:14.396Z,16.40
2017-11-08T00:46:42.326Z,17.05
2017-11-08T00:49:10.995Z,17.25
2017-11-08T00:51:38.937Z,15.40
2017-11-08T00:54:06.846Z,16.10
2017-11-08T00:56:35.563Z,13.60
2017-11-08T00:59:03.454Z,17.00
2017-11-08T01:01:31.438Z,16.23
2017-11-08T01:03:59.317Z,15.05
2017-11-08T01:06:27.272Z,15.48
2017-11-08T01:08:55.215Z,17.02
2017-11-08T01:11:23.146Z,14.73
2017-11-08T01:13:51.802Z,15.80
2017-11-08T01:16:19.806Z,15.48
2017-11-08T01:18:48.526Z,17.92
2017-11-08T01:21:16.491Z,15.98
2017-11-08T01:23:44.638Z,16.60
2017-11-08T01:26:12.583Z,14.98
2017-11-08T01:28:40.494Z,15.60
2017-11-08T01:31:08.441Z,15.02
2017-11-08T01:33:36.318Z,15.40
2017-11-08T01:36:05.070Z,14.90
2017-11-08T01:38:33.066Z,14.68
2017-11-08T01:41:04.831Z,15.65
2017-11-08T01:43:32.743Z,15.15
2017-11-08T01:46:04.493Z,15.20
2017-11-08T01:48:34.292Z,16.00
2017-11-08T01:51:02.241Z,15.15
2017-11-08T01:53:30.154Z,14.68
2017-11-08T01:55:58.157Z,17.37
2017-11-08T01:58:26.133Z,15.65
2017-11-08T02:00:54.105Z,16.42
2017-11-08T02:03:22.168Z,17.05
2017-11-08T02:05:50.121Z,15.90
2017-11-08T02:08:18.043Z,15.93
2017-11-08T02:10:46.031Z,15.13
2017-11-08T02:13:13.965Z,15.73
2017-11-08T02:15:41.986Z,14.13
2017-11-08T02:18:15.513Z,14.52
2017-11-08T02:20:43.511Z,16.83
2017-11-08T02:23:11.441Z,16.40
2017-11-08T02:25:39.448Z,16.60
2017-11-08T02:28:10.362Z,15.90
2017-11-08T02:30:38.394Z,16.95
2017-11-08T02:33:06.406Z,14.52
2017-11-08T02:35:34.439Z,17.40
2017-11-08T02:38:02.342Z,15.40
2017-11-08T02:40:30.309Z,16.00
2017-11-08T02:42:58.365Z,16.20
2017-11-08T02:45:34.865Z,15.77
2017-11-08T02:48:02.780Z,15.32
2017-11-08T02:50:30.731Z,15.75
2017-11-08T02:52:58.678Z,15.55
2017-11-08T02:55:26.587Z,16.12
2017-11-08T02:57:54.531Z,17.60
2017-11-08T03:00:22.441Z,15.90
2017-11-08T03:02:52.479Z,17.70
2017-11-08T03:05:20.382Z,16.30
2017-11-08T03:07:48.396Z,14.77
2017-11-08T03:10:16.289Z,16.95
2017-11-08T03:12:44.239Z,16.15
2017-11-08T03:15:12.140Z,14.73
2017-11-08T03:17:40.087Z,15.68
2017-11-08T03:20:07.995Z,15.00
2017-11-08T03:22:35.966Z,15.32
2017-11-08T03:25:03.926Z,14.82
2017-11-08T03:27:31.881Z,14.25
2017-11-08T03:29:59.772Z,16.23
2017-11-08T03:32:27.797Z,16.40
2017-11-08T03:34:55.703Z,17.60
2017-11-08T03:37:23.759Z,17.27
2017-11-08T03:39:51.666Z,15.63
2017-11-08T03:42:20.433Z,17.50
2017-11-08T03:44:48.327Z,15.73
2017-11-08T03:47:16.277Z,16.70
2017-11-08T03:49:44.193Z,16.27
2017-11-08T03:52:12.133Z,15.80
2017-11-08T03:54:40.018Z,16.62
2017-11-08T03:57:07.968Z,16.75
2017-11-08T03:59:35.865Z,15.80
2017-11-08T04:02:03.815Z,15.13
2017-11-08T04:04:31.727Z,16.33
2017-11-08T04:06:59.674Z,19.15
2017-11-08T04:09:27.562Z,20.05
2017-11-08T04:11:55.543Z,17.75
2017-11-08T04:14:23.425Z,16.05
2017-11-08T04:16:51.358Z,14.50
2017-11-08T04:19:19.240Z,16.42
2017-11-08T04:21:47.202Z,16.70
2017-11-08T04:24:18.846Z,16.10
2017-11-08T04:26:46.829Z,16.02
2017-11-08T04:29:14.721Z,17.05
2017-11-08T04:31:42.667Z,16.65
2017-11-08T04:34:10.562Z,16.35
2017-11-08T04:36:38.494Z,16.45
2017-11-08T04:39:06.384Z,16.55
2017-11-08T04:41:34.315Z,15.30
2017-11-08T04:44:02.218Z,16.50
2017-11-08T04:46:30.237Z,16.40
2017-11-08T04:48:58.128Z,16.20
2017-11-08T04:51:26.067Z,17.33
2017-11-08T04:53:54.145Z,17.33
2017-11-08T04:56:22.101Z,15.77
2017-11-08T04:58:49.994Z,15.20
2017-11-08T05:01:18.762Z,17.25
2017-11-08T05:03:46.711Z,17.00
2017-11-08T05:06:14.659Z,14.45
2017-11-08T05:08:42.611Z,14.75
2017-11-08T05:11:11.320Z,16.08
2017-11-08T05:13:39.219Z,15.80
2017-11-08T05:16:07.152Z,15.80
2017-11-08T05:18:35.061Z,16.40
2017-11-08T05:21:02.949Z,17.12
2017-11-08T05:23:31.125Z,16.75
2017-11-08T05:25:59.068Z,17.65
2017-11-08T05:28:27.012Z,16.77
2017-11-08T05:30:54.906Z,17.12
2017-11-08T05:33:28.550Z,15.40
2017-11-08T05:36:01.256Z,15.15
2017-11-08T05:38:35.625Z,16.33
2017-11-08T05:41:07.689Z,17.35
2017-11-08T05:43:41.238Z,15.63
2017-11-08T05:46:13.769Z,15.73
2017-11-08T05:48:44.471Z,16.10
2017-11-08T05:51:14.272Z,17.40
2017-11-08T05:53:44.038Z,16.95
2017-11-08T05:56:13.055Z,16.75
2017-11-08T05:58:41.076Z,15.52
2017-11-08T06:01:12.224Z,16.05
2017-11-08T06:03:49.586Z,16.85
2017-11-08T06:06:22.969Z,17.60
2017-11-08T06:08:56.805Z,18.02
2017-11-08T06:11:26.357Z,15.55
2017-11-08T06:13:59.441Z,15.77
2017-11-08T06:16:34.266Z,16.80
2017-11-08T06:19:07.298Z,16.65
2017-11-08T06:21:43.293Z,16.15
2017-11-08T06:24:16.815Z,16.70
2017-11-08T06:26:49.860Z,17.80
2017-11-08T06:29:23.602Z,16.65
2017-11-08T06:31:55.450Z,16.52
2017-11-08T06:34:27.813Z,17.52
2017-11-08T06:36:55.923Z,20.27
2017-11-08T06:39:23.811Z,22.33
2017-11-08T06:41:52.521Z,22.80
2017-11-08T06:44:20.411Z,21.62
2017-11-08T06:46:48.345Z,24.48
2017-11-08T06:49:16.257Z,20.90
2017-11-08T06:51:46.971Z,18.87
2017-11-08T06:54:14.863Z,18.10
2017-11-08T06:56:42.809Z,15.98
2017-11-08T06:59:10.702Z,16.98
2017-11-08T07:01:38.651Z,16.90
2017-11-08T07:04:06.548Z,16.92
2017-11-08T07:06:37.304Z,17.12
2017-11-08T07:09:05.274Z,15.00
2017-11-08T07:11:33.202Z,15.45
2017-11-08T07:14:01.265Z,16.70
2017-11-08T07:16:29.151Z,15.20
2017-11-08T07:18:57.073Z,16.08
2017-11-08T07:21:25.734Z,18.80
2017-11-08T07:23:53.682Z,18.60
2017-11-08T07:26:21.621Z,17.77
2017-11-08T07:28:49.563Z,17.67
2017-11-08T07:31:17.450Z,17.67
2017-11-08T07:33:45.465Z,16.60
2017-11-08T07:36:13.409Z,16.90
2017-11-08T07:38:41.358Z,15.30
2017-11-08T07:41:09.253Z,18.55
2017-11-08T07:43:37.219Z,15.45
2017-11-08T07:46:05.122Z,17.73
2017-11-08T07:48:33.102Z,18.40
2017-11-08T07:51:01.026Z,17.75
2017-11-08T07:53:28.999Z,16.67
2017-11-08T07:56:02.799Z,17.23
2017-11-08T07:58:30.749Z,17.55
2017-11-08T08:00:58.693Z,16.75
2017-11-08T08:03:26.713Z,18.25
2017-11-08T08:05:54.633Z,17.42
2017-11-08T08:08:22.607Z,17.50
2017-11-08T08:10:50.511Z,19.77
2017-11-08T08:13:19.347Z,18.98
2017-11-08T08:15:47.253Z,19.05
2017-11-08T08:18:15.192Z,19.50
2017-11-08T08:20:43.074Z,17.87
2017-11-08T08:23:11.014Z,18.27
2017-11-08T08:25:38.929Z,21.02
2017-11-08T08:28:06.940Z,21.33
2017-11-08T08:30:34.850Z,17.77
2017-11-08T08:33:07.256Z,16.45
2017-11-08T08:35:35.135Z,19.42
2017-11-08T08:38:03.072Z,19.08
2017-11-08T08:40:31.731Z,15.88
2017-11-08T08:42:59.677Z,17.80
2017-11-08T08:45:27.569Z,18.08
2017-11-08T08:47:55.514Z,18.65
2017-11-08T08:50:23.408Z,17.37
2017-11-08T08:52:51.334Z,18.05
2017-11-08T08:55:19.212Z,21.05
2017-11-08T08:57:47.146Z,19.65
2017-11-08T09:00:23.776Z,18.15
2017-11-08T09:02:51.722Z,17.73
2017-11-08T09:05:19.668Z,17.70
2017-11-08T09:07:47.615Z,18.10
2017-11-08T09:10:16.278Z,18.05
2017-11-08T09:12:44.414Z,17.15
2017-11-08T09:15:12.310Z,17.40
2017-11-08T09:17:40.276Z,17.73
2017-11-08T09:20:08.254Z,19.73
2017-11-08T09:22:36.209Z,15.38
2017-11-08T09:25:04.161Z,19.83
2017-11-08T09:27:32.127Z,16.80
2017-11-08T09:30:00.062Z,18.10
2017-11-08T09:32:28.047Z,18.60
2017-11-08T09:35:00.603Z,16.95
2017-11-08T09:37:34.041Z,18.27
2017-11-08T09:40:01.956Z,17.30
2017-11-08T09:42:31.902Z,15.50
2017-11-08T09:44:59.818Z,17.67
2017-11-08T09:47:28.415Z,15.93
2017-11-08T09:50:00.901Z,18.25
2017-11-08T09:52:30.202Z,19.48
2017-11-08T09:54:58.231Z,18.10
2017-11-08T09:57:26.196Z,17.67
2017-11-08T09:59:54.565Z,17.10
2017-11-08T10:02:22.513Z,16.95
2017-11-08T10:04:50.409Z,18.67
2017-11-08T10:07:18.369Z,16.12
2017-11-08T10:09:51.888Z,17.98
2017-11-08T10:12:19.797Z,18.02
2017-11-08T10:14:47.788Z,18.87
2017-11-08T10:17:15.733Z,19.42
2017-11-08T10:19:43.810Z,19.50
2017-11-08T10:22:13.847Z,17.08
2017-11-08T10:24:43.726Z,18.58
2017-11-08T10:27:11.619Z,20.37
2017-11-08T10:29:39.625Z,18.33
2017-11-08T10:32:07.545Z,20.15
2017-11-08T10:34:35.506Z,18.40
2017-11-08T10:37:03.427Z,20.62
2017-11-08T10:39:32.158Z,17.73
2017-11-08T10:42:01.289Z,19.80
2017-11-08T10:44:29.240Z,18.80
2017-11-08T10:46:57.129Z,20.48
2017-11-08T10:49:30.678Z,19.87
2017-11-08T10:51:58.681Z,20.88
2017-11-08T10:54:26.852Z,20.55
2017-11-08T10:56:54.761Z,19.70
2017-11-08T10:59:27.703Z,20.40
2017-11-08T11:01:56.287Z,19.75
2017-11-08T11:04:24.731Z,19.23
2017-11-08T11:06:52.788Z,21.55
2017-11-08T11:09:23.235Z,22.75
2017-11-08T11:11:51.227Z,20.95
2017-11-08T11:14:21.042Z,22.35
2017-11-08T11:16:49.065Z,21.48
2017-11-08T11:19:22.886Z,21.83
2017-11-08T11:21:59.296Z,22.50
2017-11-08T11:24:50.438Z,21.67
2017-11-08T11:27:19.164Z,21.60
2017-11-08T11:58:28.404Z,23.05
2017-11-08T12:00:56.744Z,21.42
2017-11-08T12:03:25.795Z,22.17
2017-11-08T12:05:53.843Z,22.08
2017-11-08T12:08:21.940Z,20.85
2017-11-08T12:10:50.049Z,22.80
2017-11-08T12:13:18.126Z,25.48
2017-11-08T12:15:46.096Z,23.17
2017-11-08T12:18:14.123Z,24.50
2017-11-08T12:20:42.199Z,25.60
2017-11-08T12:23:10.289Z,22.08
2017-11-08T12:25:38.316Z,20.77
2017-11-08T12:28:06.408Z,21.90
2017-11-08T12:30:34.426Z,20.60
2017-11-08T12:33:03.278Z,22.27
2017-11-08T12:35:31.341Z,21.20
2017-11-08T12:37:59.360Z,21.20
2017-11-08T12:40:27.418Z,22.85
2017-11-08T12:43:04.149Z,21.65
2017-11-08T12:45:32.201Z,21.62
2017-11-08T12:48:00.204Z,19.23
2017-11-08T12:50:28.282Z,22.95
2017-11-08T12:52:56.368Z,21.35
2017-11-08T12:55:25.381Z,21.92
2017-11-08T12:57:53.378Z,21.75
2017-11-08T13:00:22.235Z,23.85
2017-11-08T13:02:50.329Z,24.45
2017-11-08T13:05:18.360Z,23.80
2017-11-08T13:07:46.387Z,25.12
2017-11-08T13:10:14.450Z,24.00
2017-11-08T13:12:46.837Z,20.52
2017-11-08T13:15:14.950Z,22.85
2017-11-08T13:17:43.038Z,23.48
2017-11-08T13:20:11.128Z,22.67
2017-11-08T13:22:39.110Z,24.92
2017-11-08T13:25:07.248Z,23.95
2017-11-08T13:27:35.276Z,25.88
2017-11-08T13:30:03.346Z,22.77
2017-11-08T13:32:31.353Z,24.17
2017-11-08T13:34:59.461Z,27.60
2017-11-08T13:37:27.449Z,28.00
2017-11-08T13:39:56.296Z,26.08
2017-11-08T13:42:24.416Z,26.12
2017-11-08T13:44:52.490Z,25.98
2017-11-08T13:47:20.514Z,26.10
2017-11-08T13:49:48.865Z,26.15
2017-11-08T13:52:21.950Z,26.77
2017-11-08T13:54:50.524Z,30.73
2017-11-08T13:57:19.284Z,26.23
2017-11-08T13:59:47.365Z,26.50
2017-11-08T14:02:18.416Z,27.73
2017-11-08T14:04:49.260Z,29.95
2017-11-08T14:07:17.252Z,28.92
2017-11-08T14:09:45.278Z,27.77
2017-11-08T14:12:13.226Z,27.33
2017-11-08T14:14:41.293Z,26.02
2017-11-08T14:17:09.233Z,27.37
2017-11-08T14:19:37.214Z,24.77
2017-11-08T14:22:05.513Z,25.98
2017-11-08T14:24:33.525Z,25.40
2017-11-08T14:27:01.460Z,23.10
2017-11-08T14:29:36.681Z,28.60
2017-11-08T14:32:05.426Z,26.83
2017-11-08T14:34:33.422Z,27.20
2017-11-08T14:37:01.353Z,28.50
2017-11-08T14:39:29.341Z,27.13
2017-11-08T14:41:58.892Z,26.92
2017-11-08T14:44:27.056Z,26.58
2017-11-08T14:46:54.992Z,29.23
2017-11-08T14:49:23.755Z,30.02
2017-11-08T14:51:51.805Z,29.35
2017-11-08T14:54:19.824Z,28.48
2017-11-08T14:56:50.008Z,29.25
2017-11-08T14:59:18.112Z,30.33
2017-11-08T15:01:46.088Z,27.92
2017-11-08T15:04:14.248Z,29.05
2017-11-08T15:06:43.097Z,28.15
2017-11-08T15:09:11.504Z,27.70
2017-11-08T15:11:39.472Z,28.23
2017-11-08T15:14:13.349Z,27.60
2017-11-08T15:16:41.334Z,27.48
2017-11-08T15:19:09.354Z,27.25
2017-11-08T15:21:37.286Z,27.35
2017-11-08T15:24:06.099Z,27.52
2017-11-08T15:26:34.038Z,27.67
2017-11-08T15:29:02.462Z,27.10
2017-11-08T15:31:30.395Z,28.73
2017-11-08T15:34:02.123Z,27.27
2017-11-08T15:36:30.115Z,28.30
2017-11-08T15:38:58.231Z,26.80
2017-11-08T15:41:26.231Z,29.77
2017-11-08T15:43:56.122Z,29.80
2017-11-08T15:46:31.589Z,28.90
2017-11-08T15:49:03.559Z,26.33
2017-11-08T15:51:31.941Z,28.90
2017-11-08T15:53:59.944Z,30.00
2017-11-08T15:56:27.977Z,27.85
2017-11-08T15:58:55.961Z,32.60
2017-11-08T16:01:23.884Z,28.27
2017-11-08T16:03:51.883Z,29.48
2017-11-08T16:06:19.898Z,33.20
2017-11-08T16:08:53.344Z,31.17
2017-11-08T16:11:22.045Z,31.52
2017-11-08T16:13:50.186Z,28.60
2017-11-08T16:16:18.112Z,30.62
2017-11-08T16:18:46.057Z,30.45
2017-11-08T16:21:14.025Z,29.63
2017-11-08T16:23:43.491Z,33.53
2017-11-08T16:26:11.438Z,29.70
2017-11-08T16:28:39.367Z,32.28
2017-11-08T16:31:07.353Z,34.72
2017-11-08T16:33:36.239Z,28.85
2017-11-08T16:36:04.275Z,33.65
2017-11-08T16:38:32.336Z,31.58
2017-11-08T16:41:00.361Z,34.40
2017-11-08T16:43:28.580Z,31.30
2017-11-08T16:45:56.626Z,35.78
2017-11-08T16:48:24.554Z,30.33
2017-11-08T16:50:53.602Z,33.42
2017-11-08T16:53:21.524Z,35.58
2017-11-08T16:55:49.520Z,35.50
2017-11-08T16:58:17.481Z,40.78
2017-11-08T17:00:45.470Z,34.45
2017-11-08T17:03:13.465Z,34.20
2017-11-08T17:05:41.464Z,35.83
2017-11-08T17:08:09.382Z,35.15
2017-11-08T17:10:37.370Z,33.08
2017-11-08T17:13:05.399Z,32.65
2017-11-08T17:15:33.380Z,34.80
2017-11-08T17:18:01.301Z,37.40
2017-11-08T17:20:29.272Z,35.00
2017-11-08T17:22:57.400Z,37.03
2017-11-08T17:25:25.397Z,32.40
2017-11-08T17:27:53.374Z,34.58
2017-11-08T17:30:21.352Z,35.03
2017-11-08T17:32:49.325Z,33.75
2017-11-08T17:35:17.338Z,33.70
2017-11-08T17:37:45.276Z,29.73
2017-11-08T17:40:13.265Z,31.62
2017-11-08T17:42:42.005Z,36.63
2017-11-08T17:45:09.988Z,35.60
2017-11-08T17:47:37.905Z,35.08
2017-11-08T17:50:05.946Z,36.83
2017-11-08T17:52:33.874Z,35.13
2017-11-08T17:55:01.866Z,38.80
2017-11-08T17:57:29.788Z,33.53
2017-11-08T17:59:57.778Z,35.03
2017-11-08T18:02:25.714Z,33.30
2017-11-08T18:04:53.703Z,33.58
2017-11-08T18:07:21.616Z,33.75
2017-11-08T18:09:49.676Z,33.28
2017-11-08T18:12:17.632Z,33.22
2017-11-08T18:14:45.644Z,33.35
2017-11-08T18:17:13.636Z,31.12
2017-11-08T18:19:41.639Z,33.25
2017-11-08T18:22:09.650Z,32.00
2017-11-08T18:24:37.616Z,31.62
2017-11-08T18:27:05.562Z,29.80
2017-11-08T18:29:33.556Z,32.28
2017-11-08T18:32:01.507Z,33.15
2017-11-08T18:34:29.480Z,33.17
2017-11-08T18:36:57.422Z,32.45
2017-11-08T18:39:25.413Z,29.73
2017-11-08T18:41:54.533Z,29.40
2017-11-08T18:44:22.574Z,31.15
2017-11-08T18:46:50.562Z,33.00
2017-11-08T18:49:18.506Z,31.48
2017-11-08T18:51:46.502Z,32.38
2017-11-08T18:54:14.482Z,31.08
2017-11-08T18:56:42.458Z,30.92
2017-11-08T18:59:10.407Z,31.58
2017-11-08T19:01:38.476Z,29.52
2017-11-08T19:04:07.556Z,29.20
2017-11-08T19:06:35.499Z,28.55
2017-11-08T19:09:04.298Z,28.65
2017-11-08T19:11:32.326Z,31.30
2017-11-08T19:14:00.246Z,28.12
2017-11-08T19:16:28.224Z,28.83
2017-11-08T19:18:56.142Z,28.38
2017-11-08T19:21:24.098Z,28.45
2017-11-08T19:23:52.001Z,31.17
2017-11-08T19:26:19.938Z,31.65
2017-11-08T19:28:47.854Z,33.17
2017-11-08T19:31:16.563Z,33.58
2017-11-08T19:33:48.197Z,35.40
2017-11-08T19:36:16.271Z,36.10
2017-11-08T19:38:44.988Z,38.00
2017-11-08T19:41:12.999Z,41.22
2017-11-08T19:43:40.909Z,40.63
2017-11-08T19:46:08.857Z,41.40
2017-11-08T19:48:37.590Z,41.00
2017-11-08T19:51:05.547Z,37.35
2017-11-08T19:53:33.451Z,42.13
2017-11-08T19:56:01.417Z,40.33
2017-11-08T19:58:29.341Z,40.88
2017-11-08T20:00:57.295Z,38.25
2017-11-08T20:03:25.981Z,39.72
2017-11-08T20:05:54.692Z,39.28
2017-11-08T20:08:22.599Z,40.17
2017-11-08T20:10:50.619Z,40.10
2017-11-08T20:13:19.402Z,38.28
2017-11-08T20:15:52.592Z,38.70
2017-11-08T20:18:25.390Z,38.40
2017-11-08T20:20:58.438Z,39.05
2017-11-08T20:23:28.462Z,38.38
2017-11-08T20:26:03.548Z,37.63
2017-11-08T20:28:32.921Z,38.13
2017-11-08T20:31:10.427Z,39.28
2017-11-08T20:33:38.972Z,39.38
2017-11-08T20:36:07.897Z,37.83
2017-11-08T20:38:36.478Z,37.63
2017-11-08T20:41:11.899Z,40.40
2017-11-08T20:43:41.170Z,37.15
2017-11-08T20:46:11.482Z,41.67
2017-11-08T20:48:40.050Z,41.55
2017-11-08T20:51:08.786Z,38.28
2017-11-08T20:53:36.759Z,34.35
2017-11-08T20:56:04.731Z,36.88
2017-11-08T20:58:33.551Z,39.60
2017-11-08T21:01:01.545Z,37.95
2017-11-08T21:03:29.430Z,38.25
2017-11-08T21:05:57.329Z,38.75
2017-11-08T21:08:25.277Z,37.33
2017-11-08T21:10:53.178Z,36.85
2017-11-08T21:13:21.217Z,36.47
2017-11-08T21:15:49.125Z,35.05
2017-11-08T21:18:17.091Z,32.70
2017-11-08T21:20:44.993Z,37.25
2017-11-08T21:23:12.934Z,36.78
2017-11-08T21:25:40.829Z,36.80
2017-11-08T21:28:08.782Z,35.60
2017-11-08T21:30:37.462Z,32.60
2017-11-08T21:33:05.422Z,36.78
2017-11-08T21:35:33.338Z,36.00
2017-11-08T21:38:01.277Z,36.65
2017-11-08T21:40:29.173Z,37.83
2017-11-08T21:42:58.071Z,39.63
2017-11-08T21:45:26.629Z,37.72
2017-11-08T21:47:54.542Z,37.63
2017-11-08T21:50:22.419Z,37.83
2017-11-08T21:52:50.423Z,36.47
2017-11-08T21:55:18.334Z,37.17
2017-11-08T21:57:46.278Z,38.80
2017-11-08T22:00:17.617Z,34.47
2017-11-08T22:02:46.322Z,33.90
2017-11-08T22:05:14.246Z,33.08
2017-11-08T22:07:42.158Z,33.75
2017-11-08T22:10:10.089Z,35.17
2017-11-08T22:12:37.990Z,36.08
2017-11-08T22:15:05.959Z,33.13
2017-11-08T22:17:34.607Z,30.40
2017-11-08T22:20:02.879Z,32.15
2017-11-08T22:22:30.842Z,30.62
2017-11-08T22:24:58.796Z,31.95
2017-11-08T22:27:26.746Z,28.75
2017-11-08T22:29:54.710Z,32.00
2017-11-08T22:32:22.624Z,30.23
2017-11-08T22:34:50.597Z,29.65
2017-11-08T22:37:18.520Z,30.50
2017-11-08T22:39:46.492Z,31.70
2017-11-08T22:42:14.565Z,28.52
2017-11-08T22:44:42.553Z,31.58
2017-11-08T22:47:10.500Z,29.90
2017-11-08T22:49:38.456Z,29.00
2017-11-08T22:52:07.114Z,28.83
2017-11-08T22:54:35.080Z,29.55
2017-11-08T22:57:12.870Z,28.40
2017-11-08T22:59:40.834Z,27.48
2017-11-08T23:02:08.732Z,30.77
2017-11-08T23:04:36.695Z,26.62
2017-11-08T23:07:04.604Z,27.40
2017-11-08T23:09:32.555Z,25.50
2017-11-08T23:12:00.663Z,28.27
2017-11-08T23:14:28.620Z,25.83
2017-11-08T23:16:56.537Z,26.85
2017-11-08T23:19:24.488Z,26.85
2017-11-08T23:21:52.492Z,25.48
2017-11-08T23:24:20.425Z,28.08
2017-11-08T23:26:48.418Z,24.73
2017-11-08T23:29:16.304Z,25.65
2017-11-08T23:31:44.238Z,25.27
2017-11-08T23:34:12.132Z,29.15
2017-11-08T23:36:40.092Z,24.27
2017-11-08T23:39:07.997Z,26.83
2017-11-08T23:41:36.782Z,26.70
2017-11-08T23:44:04.668Z,27.60
2017-11-08T23:46:32.628Z,29.10
2017-11-08T23:49:01.334Z,28.38
2017-11-08T23:51:29.282Z,27.40
2017-11-08T23:54:00.962Z,28.48
2017-11-08T23:56:32.783Z,27.25
2017-11-08T23:59:00.775Z,29.20
